Time;durP1;ratioP1;P1;durP2;ratioP2;P2;SDS_P1;SDS_P2;PMS_P1;PMS_P2;Temp;Humidity;BMP_temperature;BMP_pressure;BME280_temperature;BME280_humidity;BME280_pressure;Samples;Min_cycle;Max_cycle;Signal;HPM_P1;HPM_P2
2021/11/14 00:01:34;;;;;;;7.25;5.22;;;18.30;58.30;;;;;;4985011;28;20038;-55
2021/11/14 00:04:01;;;;;;;8.30;5.43;;;18.30;58.20;;;;;;4984210;28;20041;-53
2021/11/14 00:06:27;;;;;;;7.63;5.50;;;18.30;58.20;;;;;;4983843;28;20520;-54
2021/11/14 00:08:53;;;;;;;8.70;5.50;;;18.30;58.20;;;;;;4983714;28;20054;-54
2021/11/14 00:11:19;;;;;;;6.88;5.13;;;18.30;58.10;;;;;;4983519;28;20511;-54
2021/11/14 00:13:44;;;;;;;10.45;5.28;;;18.30;58.10;;;;;;4984521;28;20085;-52
2021/11/14 00:16:10;;;;;;;9.32;5.93;;;18.30;58.10;;;;;;4983828;28;20077;-52
2021/11/14 00:18:40;;;;;;;9.45;4.93;;;18.30;58.00;;;;;;4983993;28;20038;-52
2021/11/14 00:21:06;;;;;;;7.88;5.05;;;18.30;58.00;;;;;;4984360;28;20232;-50
2021/11/14 00:23:31;;;;;;;8.10;4.93;;;18.30;58.00;;;;;;4983876;28;20153;-54
2021/11/14 00:25:58;;;;;;;6.50;5.03;;;18.30;58.00;;;;;;4983669;28;20054;-51
2021/11/14 00:28:23;;;;;;;7.40;4.90;;;18.30;58.00;;;;;;4984213;28;20038;-54
2021/11/14 00:30:49;;;;;;;8.13;5.22;;;18.30;58.00;;;;;;4983708;28;20038;-54
2021/11/14 00:33:16;;;;;;;8.48;4.78;;;18.30;57.90;;;;;;4985611;28;20518;-55
2021/11/14 00:35:41;;;;;;;7.57;5.25;;;18.30;58.00;;;;;;4976999;28;20125;-52
2021/11/14 00:38:07;;;;;;;8.63;5.10;;;18.40;58.00;;;;;;4987096;28;20129;-51
2021/11/14 00:40:34;;;;;;;5.80;4.63;;;18.30;57.80;;;;;;4984970;28;20033;-55
2021/11/14 00:42:59;;;;;;;8.07;5.10;;;18.30;57.80;;;;;;4999714;28;20037;-54
2021/11/14 00:45:25;;;;;;;8.15;4.97;;;18.30;57.90;;;;;;4957747;28;20415;-51
2021/11/14 00:47:52;;;;;;;6.90;4.85;;;18.30;57.90;;;;;;4983088;28;20027;-51
2021/11/14 00:50:17;;;;;;;5.75;4.88;;;18.30;57.90;;;;;;4984650;28;20688;-54
2021/11/14 00:52:43;;;;;;;6.95;4.95;;;18.30;57.90;;;;;;4984690;28;20038;-53
2021/11/14 00:55:10;;;;;;;6.30;4.45;;;18.40;58.00;;;;;;4984483;28;20045;-53
2021/11/14 00:57:36;;;;;;;6.45;4.95;;;18.30;57.90;;;;;;4984497;28;20121;-54
2021/11/14 01:00:03;;;;;;;7.97;5.28;;;18.30;58.00;;;;;;4984394;28;20108;-54
2021/11/14 01:02:29;;;;;;;6.57;4.93;;;18.30;58.00;;;;;;4984421;28;20030;-51
2021/11/14 01:04:54;;;;;;;5.22;4.50;;;18.30;58.00;;;;;;4984175;28;20518;-55
2021/11/14 01:07:20;;;;;;;8.70;4.78;;;18.30;57.90;;;;;;4983872;28;20034;-57
2021/11/14 01:09:45;;;;;;;5.13;4.10;;;18.30;58.00;;;;;;4985309;28;20022;-53
2021/11/14 01:12:11;;;;;;;5.63;4.63;;;18.20;57.90;;;;;;4984848;28;20034;-51
2021/11/14 01:14:36;;;;;;;6.43;4.13;;;18.20;58.00;;;;;;4984252;28;20428;-52
2021/11/14 01:17:03;;;;;;;6.47;4.70;;;18.20;58.00;;;;;;4984329;28;20109;-55
2021/11/14 01:19:29;;;;;;;8.43;4.47;;;18.20;58.10;;;;;;4984237;28;20031;-54
2021/11/14 01:21:54;;;;;;;6.68;4.50;;;18.20;58.10;;;;;;4984890;28;20168;-53
2021/11/14 01:24:20;;;;;;;4.97;4.40;;;18.20;58.20;;;;;;4984980;28;20034;-56
2021/11/14 01:26:45;;;;;;;5.05;4.25;;;18.20;58.20;;;;;;4993013;28;20042;-56
2021/11/14 01:29:11;;;;;;;5.78;4.25;;;18.20;58.20;;;;;;4988848;28;20153;-53
2021/11/14 01:31:36;;;;;;;6.60;4.07;;;18.20;58.20;;;;;;4988931;28;20031;-53
2021/11/14 01:34:02;;;;;;;4.93;4.20;;;18.10;58.30;;;;;;4986763;28;20027;-54
2021/11/14 01:36:32;;;;;;;5.82;4.40;;;18.10;58.30;;;;;;4987665;28;20117;-54
2021/11/14 01:38:58;;;;;;;5.78;4.50;;;18.10;58.30;;;;;;4988014;28;20192;-55
2021/11/14 01:41:24;;;;;;;6.15;3.72;;;18.10;58.40;;;;;;4988810;28;20061;-55
2021/11/14 01:43:50;;;;;;;5.68;4.35;;;18.10;58.30;;;;;;4990289;28;20582;-53
2021/11/14 01:46:16;;;;;;;6.90;4.95;;;18.10;58.40;;;;;;4986850;28;20033;-54
2021/11/14 01:48:41;;;;;;;5.00;4.50;;;18.00;58.50;;;;;;4988115;28;20396;-50
2021/11/14 01:51:07;;;;;;;5.43;4.03;;;18.10;58.50;;;;;;4987886;28;20399;-56
2021/11/14 01:53:34;;;;;;;5.30;4.20;;;18.00;58.50;;;;;;4986021;28;20023;-53
2021/11/14 01:55:59;;;;;;;6.18;4.28;;;18.00;58.50;;;;;;4987545;28;20073;-54
2021/11/14 01:58:25;;;;;;;5.53;4.18;;;18.00;58.50;;;;;;4987859;28;20030;-53
2021/11/14 02:01:13;;;;;;;5.80;4.15;;;18.00;58.50;;;;;;4987495;28;20031;-53
2021/11/14 02:03:42;;;;;;;5.28;4.13;;;18.00;58.60;;;;;;4986814;28;20030;-52
2021/11/14 02:06:08;;;;;;;7.38;4.20;;;18.00;58.60;;;;;;4987125;28;20035;-54
2021/11/14 02:08:35;;;;;;;5.90;3.95;;;18.00;58.60;;;;;;4987635;28;20034;-53
2021/11/14 02:11:01;;;;;;;5.82;3.85;;;18.00;58.70;;;;;;4987428;28;20056;-53
2021/11/14 02:13:26;;;;;;;4.60;3.58;;;17.90;58.80;;;;;;4986928;28;20519;-52
2021/11/14 02:15:52;;;;;;;5.32;3.90;;;17.90;58.80;;;;;;4992673;28;20483;-55
2021/11/14 02:18:18;;;;;;;7.78;4.95;;;17.90;58.90;;;;;;4987504;28;20053;-54
2021/11/14 02:20:44;;;;;;;6.07;4.30;;;17.90;58.90;;;;;;4986949;28;20031;-55
2021/11/14 02:23:11;;;;;;;5.03;4.22;;;17.90;58.90;;;;;;4986667;28;20143;-52
2021/11/14 02:25:37;;;;;;;4.97;3.88;;;17.90;58.80;;;;;;4987133;28;20027;-53
2021/11/14 02:28:02;;;;;;;5.55;3.85;;;17.90;58.80;;;;;;4986920;28;20037;-53
2021/11/14 02:30:29;;;;;;;4.53;3.70;;;17.90;58.80;;;;;;5001795;28;20030;-55
2021/11/14 02:32:55;;;;;;;5.28;3.72;;;17.90;58.80;;;;;;4986779;28;20066;-52
2021/11/14 02:35:20;;;;;;;5.63;3.72;;;17.90;58.80;;;;;;4986830;28;20074;-53
2021/11/14 02:37:46;;;;;;;5.28;4.30;;;18.00;58.70;;;;;;4986260;28;21335;-55
2021/11/14 02:40:12;;;;;;;5.05;4.20;;;17.90;58.60;;;;;;4987219;28;20034;-56
2021/11/14 02:42:38;;;;;;;4.97;3.75;;;18.00;58.60;;;;;;4989234;28;20117;-56
2021/11/14 02:45:05;;;;;;;4.68;3.88;;;18.00;58.50;;;;;;4987387;28;20133;-54
2021/11/14 02:47:31;;;;;;;4.22;3.72;;;18.00;58.40;;;;;;4988004;28;20033;-54
2021/11/14 02:49:56;;;;;;;4.55;4.00;;;18.00;58.30;;;;;;5003488;28;20117;-54
2021/11/14 02:52:22;;;;;;;4.80;4.13;;;18.10;58.30;;;;;;4988049;28;20506;-56
2021/11/14 02:54:47;;;;;;;5.53;4.70;;;18.10;58.10;;;;;;4987862;28;20038;-55
2021/11/14 02:57:13;;;;;;;4.47;3.80;;;18.10;58.10;;;;;;4986092;28;20030;-55
2021/11/14 02:59:38;;;;;;;4.43;3.42;;;18.10;58.00;;;;;;4986722;28;20077;-55
2021/11/14 03:02:04;;;;;;;5.35;4.20;;;18.10;58.00;;;;;;4987330;28;20038;-54
2021/11/14 03:04:29;;;;;;;5.40;3.85;;;18.10;57.90;;;;;;4986756;28;20030;-51
2021/11/14 03:06:55;;;;;;;4.03;3.63;;;18.10;57.90;;;;;;4987073;28;20045;-53
2021/11/14 03:09:22;;;;;;;3.90;3.47;;;18.10;57.90;;;;;;4986815;28;20101;-63
2021/11/14 03:11:47;;;;;;;4.50;3.60;;;18.10;57.90;;;;;;4987118;28;20101;-54
2021/11/14 03:14:13;;;;;;;3.92;3.47;;;18.10;57.90;;;;;;4985648;28;20042;-51
2021/11/14 03:16:39;;;;;;;4.38;3.90;;;18.10;57.80;;;;;;4997826;23;20533;-56
2021/11/14 03:19:04;;;;;;;4.22;3.83;;;18.10;57.90;;;;;;4996869;28;20038;-56
2021/11/14 03:21:30;;;;;;;3.50;3.20;;;18.10;57.80;;;;;;5017672;28;20033;-56
2021/11/14 03:23:55;;;;;;;4.35;3.58;;;18.10;57.80;;;;;;5002716;28;20092;-54
2021/11/14 03:26:22;;;;;;;3.97;3.58;;;18.10;57.80;;;;;;4990442;28;20038;-55
2021/11/14 03:28:47;;;;;;;4.00;3.35;;;18.10;58.00;;;;;;4981315;28;20073;-53
2021/11/14 03:31:13;;;;;;;4.57;3.80;;;18.10;58.00;;;;;;4983002;28;20058;-53
2021/11/14 03:33:39;;;;;;;5.05;3.92;;;18.10;58.00;;;;;;4983413;28;20026;-55
2021/11/14 03:36:08;;;;;;;5.05;3.75;;;18.10;58.00;;;;;;4982872;28;20042;-56
2021/11/14 03:38:45;;;;;;;4.72;3.90;;;18.10;58.70;;;;;;4984017;28;20118;-55
2021/11/14 03:41:12;;;;;;;4.40;3.95;;;18.00;58.00;;;;;;4985127;28;20069;-55
2021/11/14 03:43:37;;;;;;;3.33;3.03;;;18.00;58.00;;;;;;4984382;28;20153;-57
2021/11/14 03:46:03;;;;;;;4.03;3.63;;;18.00;58.00;;;;;;4981893;28;20063;-56
2021/11/14 03:48:29;;;;;;;4.60;3.63;;;18.00;58.00;;;;;;4984971;28;20034;-56
2021/11/14 03:50:55;;;;;;;4.82;3.60;;;18.00;58.00;;;;;;4983806;28;20035;-52
2021/11/14 03:53:20;;;;;;;3.80;3.50;;;18.00;58.00;;;;;;4984651;28;20731;-55
2021/11/14 03:55:46;;;;;;;5.28;3.65;;;18.00;58.00;;;;;;4983929;28;20030;-57
2021/11/14 03:58:12;;;;;;;4.50;3.55;;;18.00;58.00;;;;;;4984039;28;20035;-55
2021/11/14 04:00:40;;;;;;;3.42;3.13;;;18.10;58.60;;;;;;4984335;28;20156;-55
2021/11/14 04:03:06;;;;;;;3.72;3.38;;;18.10;57.90;;;;;;4984321;28;20092;-52
2021/11/14 04:05:31;;;;;;;4.05;3.35;;;18.00;57.80;;;;;;4982233;28;20101;-56
2021/11/14 04:07:57;;;;;;;3.97;3.45;;;18.10;57.80;;;;;;4983390;28;20037;-55
2021/11/14 04:10:23;;;;;;;4.85;4.13;;;18.10;57.80;;;;;;4982875;28;20030;-56
2021/11/14 04:12:48;;;;;;;4.32;3.92;;;18.10;57.90;;;;;;4981826;28;20026;-52
2021/11/14 04:15:15;;;;;;;3.88;3.20;;;18.10;57.80;;;;;;4982292;28;20700;-53
2021/11/14 04:17:41;;;;;;;4.00;3.58;;;18.10;57.70;;;;;;4981911;28;20086;-54
2021/11/14 04:20:08;;;;;;;3.50;3.20;;;18.10;57.60;;;;;;4981419;28;20042;-54
2021/11/14 04:22:33;;;;;;;4.55;3.67;;;18.10;57.60;;;;;;4983311;28;20833;-55
2021/11/14 04:24:59;;;;;;;5.80;3.45;;;18.10;57.60;;;;;;4982845;28;20035;-55
2021/11/14 04:27:24;;;;;;;3.80;3.33;;;18.10;57.60;;;;;;4982861;28;20387;-55
2021/11/14 04:29:50;;;;;;;3.80;3.50;;;18.20;57.60;;;;;;4982411;28;20039;-55
2021/11/14 04:32:15;;;;;;;3.75;3.38;;;18.10;57.60;;;;;;4983557;28;20058;-52
2021/11/14 04:34:41;;;;;;;3.67;2.95;;;18.10;57.60;;;;;;4981298;28;20164;-53
2021/11/14 04:37:07;;;;;;;3.67;3.30;;;18.10;57.60;;;;;;4983085;28;20026;-53
2021/11/14 04:39:32;;;;;;;3.78;2.97;;;18.10;57.60;;;;;;4982835;28;20043;-57
2021/11/14 04:41:58;;;;;;;3.67;3.38;;;18.10;57.60;;;;;;4983743;28;20034;-53
2021/11/14 04:44:24;;;;;;;4.38;3.58;;;18.10;57.60;;;;;;4982499;28;20037;-52
2021/11/14 04:46:50;;;;;;;3.60;3.30;;;18.10;57.60;;;;;;4983778;28;20089;-54
2021/11/14 04:49:20;;;;;;;3.53;3.10;;;18.10;57.50;;;;;;4982790;28;20084;-55
2021/11/14 04:51:45;;;;;;;3.63;3.13;;;18.10;57.50;;;;;;4982280;28;20503;-54
2021/11/14 04:54:11;;;;;;;4.13;3.28;;;18.10;57.50;;;;;;4981746;28;20282;-55
2021/11/14 04:56:36;;;;;;;3.78;3.10;;;18.10;57.40;;;;;;4982535;28;20030;-53
2021/11/14 04:59:02;;;;;;;3.78;3.30;;;18.20;57.40;;;;;;4982945;28;20042;-54
2021/11/14 05:01:27;;;;;;;4.05;3.65;;;18.20;57.40;;;;;;4985449;28;20027;-56
2021/11/14 05:03:53;;;;;;;3.40;3.10;;;18.10;57.40;;;;;;4987178;28;20027;-56
2021/11/14 05:06:19;;;;;;;3.53;3.20;;;18.20;57.40;;;;;;4987713;28;20084;-53
2021/11/14 05:08:44;;;;;;;3.65;3.33;;;18.20;57.40;;;;;;4987049;28;20031;-55
2021/11/14 05:11:10;;;;;;;5.07;3.60;;;18.20;58.00;;;;;;4986044;28;20030;-56
2021/11/14 05:13:35;;;;;;;3.90;3.40;;;18.20;57.30;;;;;;4986337;28;20034;-53
2021/11/14 05:16:01;;;;;;;5.03;3.13;;;18.20;57.40;;;;;;4984705;28;20022;-56
2021/11/14 05:18:26;;;;;;;5.05;3.35;;;18.20;57.40;;;;;;4986879;28;20065;-53
2021/11/14 05:20:52;;;;;;;3.75;3.45;;;18.20;57.30;;;;;;4984020;28;20470;-52
2021/11/14 05:23:18;;;;;;;3.90;3.13;;;18.20;57.40;;;;;;4981359;28;20484;-54
2021/11/14 05:25:43;;;;;;;3.85;3.53;;;18.20;57.30;;;;;;4984392;28;20538;-54
2021/11/14 05:28:10;;;;;;;4.47;3.08;;;18.20;57.40;;;;;;4980885;28;20684;-54
2021/11/14 05:30:35;;;;;;;4.57;3.28;;;18.20;57.30;;;;;;4984085;28;20026;-57
2021/11/14 05:33:01;;;;;;;3.63;3.03;;;18.20;57.30;;;;;;4983593;28;20577;-54
2021/11/14 05:35:26;;;;;;;4.93;2.92;;;18.20;57.30;;;;;;4985738;28;20022;-53
2021/11/14 05:37:52;;;;;;;3.33;3.00;;;18.20;57.30;;;;;;4982557;28;20030;-53
2021/11/14 05:40:17;;;;;;;3.42;3.10;;;18.20;57.20;;;;;;4986397;28;20395;-54
2021/11/14 05:42:43;;;;;;;3.50;3.20;;;18.20;57.20;;;;;;4983295;28;20030;-52
2021/11/14 05:45:09;;;;;;;3.40;3.10;;;18.20;57.30;;;;;;4986089;28;20035;-55
2021/11/14 05:47:34;;;;;;;4.63;3.20;;;18.20;57.20;;;;;;4982950;28;20030;-55
2021/11/14 05:50:00;;;;;;;2.88;2.63;;;18.20;57.20;;;;;;4985949;28;20030;-57
2021/11/14 05:52:26;;;;;;;4.50;3.85;;;18.20;57.20;;;;;;4985721;28;20054;-56
2021/11/14 05:54:51;;;;;;;3.38;3.08;;;18.20;57.20;;;;;;4984837;28;20109;-54
2021/11/14 05:57:17;;;;;;;3.17;2.88;;;18.20;57.10;;;;;;4983282;28;20023;-53
2021/11/14 06:02:23;;;;;;;4.03;3.33;;;18.20;57.20;;;;;;4985339;28;20409;-52
2021/11/14 06:05:13;;;;;;;4.05;3.65;;;18.20;57.10;;;;;;4986247;28;20150;-56
2021/11/14 06:07:38;;;;;;;3.30;3.00;;;18.20;57.20;;;;;;4976704;28;20035;-54
2021/11/14 06:10:04;;;;;;;3.15;2.85;;;18.20;57.20;;;;;;4986652;28;20042;-54
2021/11/14 06:12:30;;;;;;;3.38;3.08;;;18.20;57.10;;;;;;4984542;28;20084;-53
2021/11/14 06:14:56;;;;;;;3.30;3.00;;;18.20;57.20;;;;;;4986859;28;20110;-52
2021/11/14 06:17:21;;;;;;;3.97;3.05;;;18.20;57.10;;;;;;4982026;28;20054;-55
2021/11/14 06:19:47;;;;;;;3.95;3.30;;;18.20;57.20;;;;;;4985666;28;20061;-52
2021/11/14 06:22:14;;;;;;;4.47;3.13;;;18.20;57.20;;;;;;4985742;28;20049;-55
2021/11/14 06:24:39;;;;;;;3.65;3.35;;;18.20;57.10;;;;;;4981707;28;20081;-53
2021/11/14 06:27:05;;;;;;;3.25;2.95;;;18.20;57.20;;;;;;4985838;28;20582;-57
2021/11/14 06:29:30;;;;;;;3.10;2.80;;;18.20;57.20;;;;;;4984654;28;20031;-53
2021/11/14 06:31:56;;;;;;;3.40;3.15;;;18.20;57.10;;;;;;4986923;28;20030;-56
2021/11/14 06:34:21;;;;;;;3.80;3.25;;;18.20;57.10;;;;;;4985779;28;20030;-53
2021/11/14 06:36:47;;;;;;;3.10;2.85;;;18.20;57.10;;;;;;4985346;28;20077;-54
2021/11/14 06:39:12;;;;;;;4.30;3.28;;;18.20;57.10;;;;;;4985670;28;20097;-53
2021/11/14 06:41:38;;;;;;;3.80;3.08;;;18.20;57.10;;;;;;4986454;28;20057;-52
2021/11/14 06:44:04;;;;;;;3.65;3.08;;;18.20;57.10;;;;;;4985644;28;20571;-55
2021/11/14 06:46:29;;;;;;;4.35;3.22;;;18.20;57.10;;;;;;4985989;28;20522;-56
2021/11/14 06:48:55;;;;;;;5.25;3.53;;;18.20;57.10;;;;;;4984276;28;20026;-54
2021/11/14 06:51:20;;;;;;;2.90;2.70;;;18.20;57.10;;;;;;4985817;28;20033;-55
2021/11/14 06:53:46;;;;;;;3.13;2.83;;;18.20;57.10;;;;;;4985681;28;20484;-56
2021/11/14 06:56:11;;;;;;;2.65;2.45;;;18.20;57.10;;;;;;4977752;28;20050;-53
2021/11/14 06:58:37;;;;;;;3.42;3.13;;;18.20;57.10;;;;;;4999271;28;20031;-52
2021/11/14 07:01:02;;;;;;;3.15;2.85;;;18.20;57.10;;;;;;4985970;28;20027;-53
2021/11/14 07:03:28;;;;;;;3.38;2.90;;;18.20;57.10;;;;;;4986008;28;20542;-53
2021/11/14 07:05:53;;;;;;;3.45;2.95;;;18.20;57.10;;;;;;4985724;28;20580;-55
2021/11/14 07:08:19;;;;;;;3.50;3.20;;;18.20;57.10;;;;;;4985768;28;20497;-56
2021/11/14 07:10:45;;;;;;;3.50;3.20;;;18.20;57.10;;;;;;4985268;28;20030;-54
2021/11/14 07:13:10;;;;;;;5.30;3.90;;;18.20;57.10;;;;;;4984381;28;20026;-54
2021/11/14 07:15:36;;;;;;;3.08;2.78;;;18.20;57.10;;;;;;4984567;28;20491;-52
2021/11/14 07:18:01;;;;;;;6.47;3.53;;;18.20;57.20;;;;;;4984933;28;20037;-54
2021/11/14 07:20:27;;;;;;;3.53;3.22;;;18.20;57.40;;;;;;4985495;28;20031;-53
2021/11/14 07:22:52;;;;;;;3.90;3.13;;;18.20;57.40;;;;;;4983321;28;20516;-52
2021/11/14 07:25:19;;;;;;;3.83;3.47;;;18.20;57.60;;;;;;4983836;28;20112;-56
2021/11/14 07:27:47;;;;;;;4.20;3.03;;;18.20;57.60;;;;;;4984636;28;20169;-54
2021/11/14 07:30:12;;;;;;;2.83;2.58;;;18.20;57.60;;;;;;4983855;28;20175;-52
2021/11/14 07:32:42;;;;;;;3.47;3.08;;;18.20;57.70;;;;;;4985071;28;20038;-55
2021/11/14 07:35:12;;;;;;;3.63;3.33;;;18.20;57.70;;;;;;4984591;28;20038;-56
2021/11/14 07:37:39;;;;;;;3.22;2.83;;;18.20;57.80;;;;;;4985221;28;20031;-56
2021/11/14 07:40:08;;;;;;;3.63;2.90;;;18.20;58.40;;;;;;4984708;28;20081;-54
2021/11/14 07:42:34;;;;;;;6.13;3.50;;;18.20;57.80;;;;;;4983532;28;20034;-54
2021/11/14 07:44:59;;;;;;;3.78;2.85;;;18.20;57.80;;;;;;4982977;28;20034;-61
2021/11/14 07:47:25;;;;;;;3.55;3.13;;;18.20;57.70;;;;;;4983947;28;20034;-55
2021/11/14 07:49:50;;;;;;;3.63;3.25;;;18.20;57.80;;;;;;4984663;28;20038;-57
2021/11/14 07:52:16;;;;;;;4.22;3.22;;;18.20;58.30;;;;;;4984576;28;20061;-54
2021/11/14 07:54:42;;;;;;;5.18;3.30;;;18.20;57.70;;;;;;4984612;28;20069;-54
2021/11/14 07:57:07;;;;;;;4.65;3.38;;;18.20;58.30;;;;;;4982677;28;20121;-52
2021/11/14 07:59:33;;;;;;;3.85;3.10;;;18.20;57.60;;;;;;4984571;28;20040;-52
2021/11/14 08:01:58;;;;;;;12.65;7.45;;;18.20;57.60;;;;;;4985094;28;20026;-52
2021/11/14 08:04:24;;;;;;;15.55;8.80;;;18.20;57.90;;;;;;4984186;28;20582;-56
2021/11/14 08:06:49;;;;;;;12.57;7.15;;;18.20;58.00;;;;;;4983439;28;20042;-55
2021/11/14 08:09:15;;;;;;;8.68;6.15;;;18.20;57.80;;;;;;4982654;28;20038;-57
2021/11/14 08:11:40;;;;;;;10.77;6.38;;;18.20;57.80;;;;;;4981417;28;20496;-54
2021/11/14 08:14:06;;;;;;;17.00;7.40;;;18.20;57.60;;;;;;4983393;28;20034;-56
2021/11/14 08:16:31;;;;;;;13.70;7.38;;;18.20;57.80;;;;;;4983357;28;20572;-55
2021/11/14 08:18:57;;;;;;;10.82;6.68;;;18.20;58.40;;;;;;4984187;28;20034;-54
2021/11/14 08:21:22;;;;;;;12.63;7.38;;;18.20;57.80;;;;;;4983443;28;20035;-54
2021/11/14 08:23:48;;;;;;;14.63;7.45;;;18.20;57.70;;;;;;4983785;28;20033;-56
2021/11/14 08:26:13;;;;;;;12.02;6.03;;;18.20;57.70;;;;;;4983806;28;20196;-52
2021/11/14 08:28:39;;;;;;;12.48;7.15;;;18.20;57.60;;;;;;4982006;28;20030;-56
2021/11/14 08:31:04;;;;;;;11.15;6.30;;;18.20;57.60;;;;;;4984188;28;20019;-57
2021/11/14 08:33:31;;;;;;;10.75;6.35;;;18.20;57.60;;;;;;4984290;28;20023;-55
2021/11/14 08:35:57;;;;;;;9.73;5.30;;;18.10;57.40;;;;;;4982311;28;20048;-54
2021/11/14 08:38:24;;;;;;;10.38;5.88;;;18.10;57.40;;;;;;4984063;28;20776;-54
2021/11/14 08:40:49;;;;;;;11.35;5.88;;;18.20;57.40;;;;;;4984214;28;20042;-55
2021/11/14 08:43:15;;;;;;;11.52;6.25;;;18.20;57.40;;;;;;4983878;28;20023;-55
2021/11/14 08:45:42;;;;;;;11.50;5.40;;;18.20;57.40;;;;;;4983375;28;20410;-52
2021/11/14 08:48:08;;;;;;;9.95;5.47;;;18.20;57.40;;;;;;4984088;28;20114;-53
2021/11/14 08:50:33;;;;;;;12.68;5.63;;;18.20;57.40;;;;;;4982115;28;20114;-55
2021/11/14 08:52:59;;;;;;;9.38;5.65;;;18.20;57.40;;;;;;4982527;28;20038;-58
2021/11/14 08:55:26;;;;;;;11.35;5.55;;;18.20;57.30;;;;;;4981945;28;20038;-52
2021/11/14 08:57:52;;;;;;;12.00;5.70;;;18.10;57.20;;;;;;4983558;28;20022;-56
2021/11/14 09:00:20;;;;;;;11.02;5.30;;;18.20;57.30;;;;;;4983273;28;20031;-55
2021/11/14 09:02:49;;;;;;;11.38;6.90;;;18.20;57.30;;;;;;4983961;28;20038;-55
2021/11/14 09:05:14;;;;;;;17.05;8.70;;;18.20;57.40;;;;;;4982827;28;20027;-52
2021/11/14 09:07:40;;;;;;;31.20;13.60;;;18.20;57.80;;;;;;4983794;28;20443;-56
2021/11/14 09:10:06;;;;;;;28.50;13.27;;;18.20;58.80;;;;;;4983293;28;20497;-56
2021/11/14 09:12:31;;;;;;;25.90;12.85;;;18.20;59.50;;;;;;4983721;28;20034;-54
2021/11/14 09:14:57;;;;;;;24.60;13.10;;;18.20;59.50;;;;;;4983373;28;20077;-55
2021/11/14 09:17:23;;;;;;;26.80;12.75;;;18.20;59.70;;;;;;4997374;23;20468;-55
2021/11/14 09:19:49;;;;;;;27.60;14.40;;;18.20;59.80;;;;;;4999503;28;20450;-52
2021/11/14 09:22:15;;;;;;;21.70;13.07;;;18.10;60.10;;;;;;5016059;28;20413;-56
2021/11/14 09:24:40;;;;;;;23.60;12.23;;;18.10;60.50;;;;;;4998531;28;20022;-57
2021/11/14 09:27:07;;;;;;;20.80;12.07;;;18.10;60.80;;;;;;5000708;28;20088;-55
2021/11/14 09:29:32;;;;;;;22.65;11.88;;;18.10;61.00;;;;;;4999047;28;20030;-56
2021/11/14 09:31:58;;;;;;;23.63;11.18;;;18.00;61.20;;;;;;4998953;28;20586;-55
2021/11/14 09:34:23;;;;;;;24.40;10.98;;;18.00;61.30;;;;;;4994258;28;20095;-54
2021/11/14 09:36:49;;;;;;;22.50;10.75;;;18.10;61.30;;;;;;4998028;28;20025;-54
2021/11/14 09:39:15;;;;;;;17.15;9.85;;;18.00;61.10;;;;;;4989283;28;20058;-55
2021/11/14 09:41:42;;;;;;;27.05;9.18;;;18.00;60.80;;;;;;5000265;28;20480;-53
2021/11/14 09:44:10;;;;;;;24.77;8.95;;;18.00;60.60;;;;;;5000159;28;20068;-53
2021/11/14 09:46:43;;;;;;;23.23;10.27;;;18.00;60.60;;;;;;4999037;28;20037;-55
2021/11/14 09:49:09;;;;;;;20.40;8.10;;;18.00;60.70;;;;;;4995940;28;20025;-53
2021/11/14 09:51:35;;;;;;;22.30;8.35;;;17.90;60.70;;;;;;5013378;28;20637;-56
2021/11/14 09:54:00;;;;;;;14.65;7.28;;;17.90;60.60;;;;;;5003312;28;20036;-50
2021/11/14 09:56:26;;;;;;;22.13;7.28;;;17.90;60.50;;;;;;5004049;28;20022;-55
2021/11/14 09:58:51;;;;;;;25.05;8.35;;;17.90;60.30;;;;;;5005072;28;20084;-56
2021/11/14 10:01:17;;;;;;;23.00;7.40;;;17.90;60.20;;;;;;5005418;28;20597;-56
2021/11/14 10:03:44;;;;;;;21.30;8.18;;;17.90;60.20;;;;;;5005097;28;20026;-56
2021/11/14 10:06:10;;;;;;;16.45;6.25;;;17.90;60.20;;;;;;5004400;28;20030;-54
2021/11/14 10:08:38;;;;;;;21.98;6.78;;;18.00;60.10;;;;;;5004993;28;20611;-57
2021/11/14 10:11:04;;;;;;;12.43;5.50;;;18.00;59.90;;;;;;5003903;28;20034;-55
2021/11/14 10:13:34;;;;;;;19.35;7.07;;;18.00;59.80;;;;;;5005197;28;20041;-52
2021/11/14 10:16:14;;;;;;;15.85;6.47;;;18.00;59.80;;;;;;5003818;28;20073;-53
2021/11/14 10:18:45;;;;;;;9.98;5.15;;;18.00;59.60;;;;;;5000101;28;20524;-54
2021/11/14 10:21:10;;;;;;;11.20;4.47;;;18.00;59.70;;;;;;4993061;28;20530;-55
2021/11/14 10:23:36;;;;;;;19.00;4.20;;;18.00;59.70;;;;;;5004883;28;20117;-55
2021/11/14 10:26:07;;;;;;;10.35;4.35;;;18.10;59.50;;;;;;5021065;28;20113;-54
2021/11/14 10:28:32;;;;;;;8.75;3.95;;;18.00;59.50;;;;;;5004466;28;20364;-57
2021/11/14 10:30:58;;;;;;;10.00;4.15;;;18.00;59.50;;;;;;5005791;28;20057;-57
2021/11/14 10:33:24;;;;;;;7.78;3.60;;;18.00;59.50;;;;;;5004628;28;20068;-58
2021/11/14 10:35:51;;;;;;;6.22;3.80;;;18.00;59.50;;;;;;5005408;28;20040;-57
2021/11/14 10:38:19;;;;;;;7.55;5.35;;;18.00;58.60;;;;;;5005805;28;20030;-52
2021/11/14 10:40:47;;;;;;;4.65;4.25;;;18.00;55.70;;;;;;5004118;28;20146;-57
2021/11/14 10:43:12;;;;;;;5.85;5.07;;;17.90;54.30;;;;;;5020508;28;20456;-61
2021/11/14 10:45:39;;;;;;;5.63;4.80;;;17.90;53.40;;;;;;5005879;28;20058;-57
2021/11/14 10:48:06;;;;;;;4.78;3.58;;;17.80;56.00;;;;;;5005307;28;20049;-54
2021/11/14 10:50:35;;;;;;;5.15;3.60;;;17.80;57.30;;;;;;5005447;28;20101;-55
2021/11/14 10:53:11;;;;;;;5.60;3.70;;;17.80;57.20;;;;;;5004835;28;20038;-52
2021/11/14 10:55:45;;;;;;;3.38;2.90;;;17.80;57.20;;;;;;5005428;28;20063;-52
2021/11/14 10:58:11;;;;;;;4.88;2.60;;;17.80;57.20;;;;;;5004163;28;20678;-51
2021/11/14 11:00:37;;;;;;;3.75;2.47;;;17.80;57.10;;;;;;5009393;28;20154;-57
2021/11/14 11:03:03;;;;;;;8.10;4.28;;;17.90;57.10;;;;;;5006022;28;20067;-58
2021/11/14 11:05:28;;;;;;;8.18;7.07;;;17.80;57.00;;;;;;5003380;28;20168;-55
2021/11/14 11:07:59;;;;;;;16.35;8.02;;;17.80;56.60;;;;;;5004580;28;20231;-56
2021/11/14 11:10:45;;;;;;;13.20;7.40;;;17.80;56.70;;;;;;5005158;28;20034;-53
2021/11/14 11:13:13;;;;;;;7.85;6.00;;;17.80;56.30;;;;;;5019991;28;20092;-54
2021/11/14 11:15:46;;;;;;;7.55;5.97;;;17.80;56.50;;;;;;5004888;28;20076;-53
2021/11/14 11:18:13;;;;;;;6.25;5.32;;;17.80;56.40;;;;;;5004559;28;20026;-57
2021/11/14 11:20:39;;;;;;;6.18;5.40;;;17.80;56.50;;;;;;5004507;28;20109;-51
2021/11/14 11:23:07;;;;;;;7.20;4.90;;;17.80;56.60;;;;;;5004836;28;20626;-57
2021/11/14 11:25:38;;;;;;;6.13;5.50;;;17.80;56.40;;;;;;5005686;28;20188;-56
2021/11/14 11:28:32;;;;;;;5.22;4.65;;;17.70;56.20;;;;;;5003544;28;20036;-55
2021/11/14 11:31:05;;;;;;;8.57;5.40;;;17.70;54.40;;;;;;5002024;28;20124;-54
2021/11/14 11:33:33;;;;;;;8.30;7.45;;;17.70;55.00;;;;;;5004516;28;20049;-56
2021/11/14 11:35:59;;;;;;;7.13;6.43;;;17.70;52.80;;;;;;5003340;28;20395;-55
2021/11/14 11:38:26;;;;;;;7.15;6.45;;;17.60;52.80;;;;;;5004652;28;20045;-51
2021/11/14 11:40:53;;;;;;;7.47;5.22;;;17.60;52.80;;;;;;5003781;28;20037;-53
2021/11/14 11:43:18;;;;;;;12.32;6.45;;;17.60;55.90;;;;;;5004049;28;20029;-65
2021/11/14 11:45:44;;;;;;;21.75;8.05;;;17.60;54.50;;;;;;5005038;28;20498;-59
2021/11/14 11:48:27;;;;;;;12.80;5.22;;;17.10;53.30;;;;;;5003123;28;20033;-61
2021/11/14 11:50:53;;;;;;;6.85;6.22;;;17.30;56.80;;;;;;5000150;28;20263;-64
2021/11/14 11:53:24;;;;;;;10.13;6.47;;;16.80;55.30;;;;;;5002240;28;20022;-61
2021/11/14 11:56:00;;;;;;;13.68;6.63;;;17.10;56.20;;;;;;5004034;28;20042;-60
2021/11/14 11:58:26;;;;;;;9.75;8.05;;;17.60;55.80;;;;;;5002811;28;20026;-63
2021/11/14 12:00:55;;;;;;;28.17;8.52;;;17.40;53.60;;;;;;4986346;28;20534;-62
2021/11/14 12:03:39;;;;;;;8.85;5.63;;;17.40;55.50;;;;;;5004132;28;20117;-61
2021/11/14 12:06:21;;;;;;;9.10;4.05;;;17.50;56.00;;;;;;5003126;28;20030;-62
2021/11/14 12:08:48;;;;;;;7.10;3.97;;;17.60;56.90;;;;;;5003193;28;20124;-62
2021/11/14 12:11:34;;;;;;;5.78;3.17;;;17.60;56.90;;;;;;4954891;28;20029;-64
2021/11/14 12:14:01;;;;;;;7.28;3.40;;;17.60;57.20;;;;;;5002413;28;20038;-64
2021/11/14 12:16:30;;;;;;;7.63;3.90;;;17.60;57.70;;;;;;5002322;28;20030;-62
2021/11/14 12:18:56;;;;;;;5.38;3.25;;;17.80;58.10;;;;;;5000341;28;20049;-63
2021/11/14 12:21:22;;;;;;;3.88;3.30;;;17.70;58.10;;;;;;5002112;28;20069;-64
2021/11/14 12:23:56;;;;;;;3.47;3.17;;;17.70;58.70;;;;;;5019244;28;20038;-64
2021/11/14 12:26:28;;;;;;;4.65;3.45;;;17.70;59.00;;;;;;5001899;28;20037;-62
2021/11/14 12:28:55;;;;;;;3.38;2.88;;;17.60;59.20;;;;;;5003580;28;20034;-63
2021/11/14 12:31:28;;;;;;;5.93;4.03;;;17.60;59.30;;;;;;5002878;28;20042;-63
2021/11/14 12:34:08;;;;;;;28.00;8.68;;;17.70;59.60;;;;;;5003369;28;20193;-63
2021/11/14 12:36:38;;;;;;;106.82;29.45;;;17.70;59.70;;;;;;4993508;28;20030;-62
2021/11/14 12:39:08;;;;;;;189.93;57.40;;;17.70;59.80;;;;;;4977855;28;20049;-62
2021/11/14 12:41:34;;;;;;;175.57;59.75;;;17.70;59.90;;;;;;5001659;28;20029;-63
2021/11/14 12:44:00;;;;;;;179.43;62.85;;;17.70;60.20;;;;;;5001820;28;20088;-64